createdAt,value
2022-10-05T00:03:12.881Z,13.75
2022-10-05T00:13:18.348Z,13.78
2022-10-05T00:23:26.190Z,14.03
2022-10-05T00:33:32.226Z,14.04
2022-10-05T00:43:51.161Z,14.00
2022-10-05T00:54:07.852Z,13.43
2022-10-05T01:04:25.150Z,13.56
2022-10-05T01:14:33.382Z,13.50
2022-10-05T01:24:51.078Z,13.32
2022-10-05T01:35:09.960Z,13.38
2022-10-05T01:45:27.604Z,13.28
2022-10-05T01:55:40.454Z,13.49
2022-10-05T02:05:51.657Z,13.19
2022-10-05T02:16:02.370Z,13.30
2022-10-05T02:26:08.028Z,13.12
2022-10-05T02:36:18.466Z,13.51
2022-10-05T02:46:34.723Z,13.65
2022-10-05T02:56:47.987Z,13.63
2022-10-05T03:07:03.830Z,13.67
2022-10-05T03:17:17.213Z,13.66
2022-10-05T03:27:33.055Z,13.73
2022-10-05T03:37:47.523Z,13.85
2022-10-05T03:48:01.478Z,13.86
2022-10-05T03:58:15.587Z,13.87
2022-10-05T04:08:24.206Z,13.66
2022-10-05T04:18:33.628Z,13.73
2022-10-05T04:28:46.517Z,13.65
2022-10-05T04:39:03.688Z,13.57
2022-10-05T04:49:29.636Z,13.60
2022-10-05T04:59:52.689Z,13.58
2022-10-05T05:10:19.322Z,13.52
2022-10-05T05:20:38.165Z,13.55
2022-10-05T05:30:47.228Z,13.48
2022-10-05T05:41:07.183Z,13.54
2022-10-05T05:51:16.502Z,13.47
2022-10-05T06:01:32.705Z,13.39
2022-10-05T06:11:46.416Z,13.25
2022-10-05T06:22:30.658Z,13.40
2022-10-05T06:32:46.797Z,13.44
2022-10-05T06:43:22.622Z,13.68
2022-10-05T06:53:57.829Z,13.76
2022-10-05T07:04:31.267Z,13.79
2022-10-05T07:15:40.863Z,13.98
2022-10-05T07:26:19.696Z,14.03
2022-10-05T07:37:10.712Z,14.20
2022-10-05T07:47:48.888Z,14.40
2022-10-05T07:58:06.595Z,14.59
2022-10-05T08:08:26.122Z,14.74
2022-10-05T08:19:14.529Z,14.87
2022-10-05T08:29:32.474Z,15.02
2022-10-05T08:39:40.672Z,15.14
2022-10-05T08:50:16.771Z,15.28
2022-10-05T09:00:23.595Z,15.45
2022-10-05T09:11:05.766Z,15.72
2022-10-05T09:21:24.921Z,16.24
2022-10-05T09:31:51.915Z,16.60
2022-10-05T09:42:31.160Z,17.14
2022-10-05T09:53:28.382Z,17.76
2022-10-05T10:03:58.541Z,18.06
2022-10-05T10:14:20.689Z,18.39
2022-10-05T10:24:42.923Z,18.43
2022-10-05T10:35:23.000Z,18.45
2022-10-05T10:45:51.854Z,18.92
2022-10-05T10:56:15.839Z,19.20
2022-10-05T11:07:03.290Z,19.40
2022-10-05T11:17:41.951Z,19.66
2022-10-05T11:28:00.997Z,19.81
2022-10-05T11:38:32.640Z,20.13
2022-10-05T11:48:48.207Z,20.23
2022-10-05T11:58:57.853Z,20.45
2022-10-05T12:09:13.761Z,20.29
2022-10-05T12:19:27.240Z,20.46
2022-10-05T12:29:39.773Z,20.65
2022-10-05T12:39:51.553Z,20.58
2022-10-05T12:50:04.497Z,20.65
2022-10-05T13:00:14.663Z,20.81
2022-10-05T13:10:31.625Z,20.89
2022-10-05T13:20:44.677Z,20.99
2022-10-05T13:30:56.835Z,21.01
2022-10-05T13:41:11.804Z,21.19
2022-10-05T13:51:20.357Z,21.46
2022-10-05T14:01:41.568Z,20.89
2022-10-05T14:11:52.075Z,21.05
2022-10-05T14:22:02.239Z,20.85
2022-10-05T14:32:15.079Z,20.80
2022-10-05T14:42:23.021Z,20.82
2022-10-05T14:52:32.638Z,20.84
2022-10-05T15:02:55.647Z,20.82
2022-10-05T15:13:11.232Z,20.72
2022-10-05T15:23:24.840Z,20.80
2022-10-05T15:33:35.700Z,20.80
2022-10-05T15:43:51.286Z,20.77
2022-10-05T15:54:14.759Z,20.86
2022-10-05T16:04:30.127Z,20.80
2022-10-05T16:14:48.730Z,20.78
2022-10-05T16:25:06.704Z,20.68
2022-10-05T16:35:18.790Z,20.64
2022-10-05T16:45:30.659Z,20.66
2022-10-05T16:55:38.685Z,20.71
2022-10-05T17:06:13.288Z,20.63
2022-10-05T17:16:26.170Z,20.63
2022-10-05T17:26:54.887Z,20.55
2022-10-05T17:37:00.075Z,20.42
2022-10-05T17:47:09.090Z,20.27
2022-10-05T17:57:24.661Z,20.19
2022-10-05T18:07:29.675Z,20.24
2022-10-05T18:17:40.260Z,20.20
2022-10-05T18:28:02.713Z,20.17
2022-10-05T18:38:16.702Z,20.01
2022-10-05T18:48:33.497Z,19.75
2022-10-05T18:58:52.016Z,19.82
2022-10-05T19:09:08.023Z,19.83
2022-10-05T19:19:30.911Z,19.69
2022-10-05T19:30:11.911Z,19.61
2022-10-05T19:40:24.320Z,19.57
2022-10-05T19:50:30.331Z,19.55
2022-10-05T20:00:35.467Z,19.53
2022-10-05T20:10:39.823Z,19.44
2022-10-05T20:20:47.141Z,19.48
2022-10-05T20:30:55.351Z,19.55
2022-10-05T20:40:58.222Z,19.33
2022-10-05T20:51:02.555Z,19.31
2022-10-05T21:01:18.371Z,19.34
2022-10-05T21:11:22.981Z,19.20
2022-10-05T21:21:27.875Z,19.12
2022-10-05T21:31:33.359Z,19.19
2022-10-05T21:41:36.316Z,19.27
2022-10-05T21:51:41.326Z,19.33
2022-10-05T22:01:44.327Z,19.45
2022-10-05T22:11:49.751Z,19.33
2022-10-05T22:21:52.778Z,19.26
2022-10-05T22:31:57.584Z,19.26
2022-10-05T22:42:00.491Z,19.21
2022-10-05T22:52:04.701Z,18.60
2022-10-05T23:02:07.664Z,18.11
2022-10-05T23:12:13.675Z,17.65
2022-10-05T23:22:16.683Z,17.68
2022-10-05T23:32:20.890Z,17.57
2022-10-05T23:42:23.890Z,17.73
2022-10-05T23:52:28.348Z,17.45
